Time;durP1;ratioP1;P1;durP2;ratioP2;P2;SDS_P1;SDS_P2;PMS_P1;PMS_P2;Temp;Humidity;BMP_temperature;BMP_pressure;BME280_temperature;BME280_humidity;BME280_pressure;Samples;Min_cycle;Max_cycle;Signal;HPM_P1;HPM_P2
2023/04/15 00:00:52;;;;;;;2.20;0.93;;;;;;;;;;4987362;28;20058;-60
2023/04/15 00:03:17;;;;;;;2.47;1.00;;;;;;;;;;4987891;28;20352;-58
2023/04/15 00:05:43;;;;;;;2.08;1.00;;;;;;;;;;4981592;28;20531;-59
2023/04/15 00:08:08;;;;;;;2.03;0.85;;;;;;;;;;4998166;28;20092;-59
2023/04/15 00:10:33;;;;;;;1.60;0.87;;;;;;;;;;4987969;28;20084;-59
2023/04/15 00:12:59;;;;;;;2.30;1.10;;;;;;;;;;4989463;28;20352;-59
2023/04/15 00:15:24;;;;;;;2.45;0.95;;;;;;;;;;4987596;28;20061;-59
2023/04/15 00:17:50;;;;;;;1.77;1.00;;;;;;;;;;4992459;28;20073;-59
2023/04/15 00:20:16;;;;;;;2.08;1.00;;;;;;;;;;4994740;28;20756;-58
2023/04/15 00:22:41;;;;;;;2.47;1.05;;;;;;;;;;4981923;28;20129;-59
2023/04/15 00:25:07;;;;;;;1.80;1.00;;;;;;;;;;4982533;28;20776;-58
2023/04/15 00:27:32;;;;;;;2.38;1.05;;;;;;;;;;4985391;28;20660;-59
2023/04/15 00:29:57;;;;;;;2.53;1.13;;;;;;;;;;4981934;28;20062;-60
2023/04/15 00:32:22;;;;;;;2.50;1.13;;;;;;;;;;4986531;28;20060;-60
2023/04/15 00:34:48;;;;;;;2.13;1.10;;;;;;;;;;4987353;28;20285;-60
2023/04/15 00:37:13;;;;;;;2.30;1.00;;;;;;;;;;5001516;28;20316;-57
2023/04/15 00:39:39;;;;;;;2.08;1.10;;;;;;;;;;4994809;28;20046;-59
2023/04/15 00:42:04;;;;;;;2.42;0.93;;;;;;;;;;4984245;28;20031;-59
2023/04/15 00:44:30;;;;;;;2.20;1.02;;;;;;;;;;5002248;28;20194;-59
2023/04/15 00:46:55;;;;;;;2.55;1.00;;;;;;;;;;5000672;28;20569;-59
2023/04/15 00:49:20;;;;;;;2.05;1.10;;;;;;;;;;5001034;28;20109;-59
2023/04/15 00:51:46;;;;;;;2.17;1.17;;;;;;;;;;4985689;28;20549;-58
2023/04/15 00:54:11;;;;;;;2.22;1.17;;;;;;;;;;4986982;28;20034;-60
2023/04/15 00:56:37;;;;;;;2.75;1.20;;;;;;;;;;4985804;28;20046;-60
2023/04/15 00:59:03;;;;;;;2.63;0.98;;;;;;;;;;4978606;28;20034;-59
2023/04/15 01:01:28;;;;;;;2.10;1.00;;;;;;;;;;4999671;28;20078;-59
2023/04/15 01:03:54;;;;;;;2.78;1.30;;;;;;;;;;4984654;28;20462;-59
2023/04/15 01:06:20;;;;;;;2.58;1.15;;;;;;;;;;5001247;28;20061;-59
2023/04/15 01:08:45;;;;;;;2.00;1.08;;;;;;;;;;4985158;28;20141;-60
2023/04/15 01:11:11;;;;;;;2.90;1.20;;;;;;;;;;4988720;28;20125;-59
2023/04/15 01:13:36;;;;;;;2.63;1.10;;;;;;;;;;4974815;28;20292;-60
2023/04/15 01:16:02;;;;;;;1.87;1.00;;;;;;;;;;4983002;28;20431;-59
2023/04/15 01:18:28;;;;;;;1.60;0.97;;;;;;;;;;4984963;28;20835;-60
2023/04/15 01:20:53;;;;;;;2.10;1.10;;;;;;;;;;4988483;28;20293;-59
2023/04/15 01:23:19;;;;;;;1.90;1.00;;;;;;;;;;4983080;28;20049;-61
2023/04/15 01:25:44;;;;;;;2.50;1.30;;;;;;;;;;4982949;28;20049;-58
2023/04/15 01:28:09;;;;;;;2.40;1.17;;;;;;;;;;4999335;28;20038;-59
2023/04/15 01:30:35;;;;;;;2.55;1.10;;;;;;;;;;4993336;28;20100;-60
2023/04/15 01:33:00;;;;;;;1.75;1.08;;;;;;;;;;4983362;28;20065;-60
2023/04/15 01:35:26;;;;;;;1.85;1.02;;;;;;;;;;4999418;28;20030;-60
2023/04/15 01:37:51;;;;;;;2.10;1.10;;;;;;;;;;4998980;28;20053;-59
2023/04/15 01:40:16;;;;;;;1.98;0.90;;;;;;;;;;4982715;28;20455;-60
2023/04/15 01:42:41;;;;;;;2.23;1.30;;;;;;;;;;4998713;28;20034;-61
2023/04/15 01:45:07;;;;;;;2.30;1.30;;;;;;;;;;4983552;28;20318;-59
2023/04/15 01:47:32;;;;;;;2.20;1.08;;;;;;;;;;4983714;28;20887;-58
2023/04/15 01:49:58;;;;;;;1.93;1.00;;;;;;;;;;4981196;28;20035;-59
2023/04/15 01:52:23;;;;;;;2.53;1.30;;;;;;;;;;4979388;28;21115;-59
2023/04/15 01:54:48;;;;;;;1.98;1.10;;;;;;;;;;4974972;28;20500;-60
2023/04/15 01:57:13;;;;;;;1.93;1.00;;;;;;;;;;4984258;28;20058;-60
2023/04/15 01:59:39;;;;;;;2.27;1.00;;;;;;;;;;4984493;28;20290;-60
2023/04/15 02:02:05;;;;;;;1.67;1.13;;;;;;;;;;4971672;28;20293;-59
2023/04/15 02:04:30;;;;;;;2.47;1.23;;;;;;;;;;4984198;28;20387;-59
2023/04/15 02:06:55;;;;;;;1.92;1.25;;;;;;;;;;4984507;28;20034;-60
2023/04/15 02:09:21;;;;;;;4.05;1.42;;;;;;;;;;4981661;28;20026;-58
2023/04/15 02:11:46;;;;;;;1.60;1.00;;;;;;;;;;4983437;28;20030;-59
2023/04/15 02:14:11;;;;;;;2.13;1.10;;;;;;;;;;4984093;28;20278;-60
2023/04/15 02:16:36;;;;;;;2.20;1.30;;;;;;;;;;4985029;28;20384;-61
2023/04/15 02:19:02;;;;;;;2.17;1.20;;;;;;;;;;4999995;28;20278;-60
2023/04/15 02:21:28;;;;;;;2.28;0.98;;;;;;;;;;4979380;28;20503;-59
2023/04/15 02:23:53;;;;;;;1.70;1.10;;;;;;;;;;4990798;28;20538;-59
2023/04/15 02:26:18;;;;;;;2.20;1.07;;;;;;;;;;4996124;28;20189;-60
2023/04/15 02:28:44;;;;;;;2.53;1.15;;;;;;;;;;4987956;28;20285;-59
2023/04/15 02:31:09;;;;;;;2.45;1.40;;;;;;;;;;4981608;28;20100;-59
2023/04/15 02:33:35;;;;;;;1.92;0.88;;;;;;;;;;4987644;28;20474;-59
2023/04/15 02:36:01;;;;;;;1.90;1.10;;;;;;;;;;4987540;28;20139;-59
2023/04/15 02:38:26;;;;;;;1.87;1.10;;;;;;;;;;4986390;28;20848;-60
2023/04/15 02:40:51;;;;;;;1.53;1.07;;;;;;;;;;4992656;28;20352;-61
2023/04/15 02:43:16;;;;;;;3.13;1.30;;;;;;;;;;4986377;28;20108;-61
2023/04/15 02:45:42;;;;;;;1.60;1.10;;;;;;;;;;4987852;28;20034;-60
2023/04/15 02:48:07;;;;;;;2.22;1.23;;;;;;;;;;4987077;28;20566;-60
2023/04/15 02:50:33;;;;;;;1.92;1.20;;;;;;;;;;5002006;28;20038;-60
2023/04/15 02:53:00;;;;;;;2.43;1.40;;;;;;;;;;4989689;28;20357;-61
2023/04/15 02:55:25;;;;;;;1.92;0.95;;;;;;;;;;4997266;28;20277;-59
2023/04/15 02:57:50;;;;;;;2.20;1.15;;;;;;;;;;4987813;28;20046;-60
2023/04/15 03:00:16;;;;;;;1.70;1.00;;;;;;;;;;4984325;28;20035;-59
2023/04/15 03:02:41;;;;;;;1.77;1.00;;;;;;;;;;4988170;28;20113;-59
2023/04/15 03:05:10;;;;;;;3.03;1.40;;;;;;;;;;5002664;28;20789;-60
2023/04/15 03:07:35;;;;;;;1.83;1.10;;;;;;;;;;4999246;28;20491;-60
2023/04/15 03:10:01;;;;;;;2.17;1.20;;;;;;;;;;4978451;28;20058;-59
2023/04/15 03:12:27;;;;;;;2.45;1.42;;;;;;;;;;4982281;28;20278;-61
2023/04/15 03:14:52;;;;;;;2.95;1.52;;;;;;;;;;4985326;28;20034;-59
2023/04/15 03:17:17;;;;;;;1.98;1.15;;;;;;;;;;5001485;28;20089;-60
2023/04/15 03:19:43;;;;;;;1.83;1.07;;;;;;;;;;4995767;28;20737;-59
2023/04/15 03:22:08;;;;;;;3.00;1.30;;;;;;;;;;4971068;28;20751;-59
2023/04/15 03:24:33;;;;;;;2.00;1.10;;;;;;;;;;4986918;28;20304;-60
2023/04/15 03:26:58;;;;;;;2.30;1.40;;;;;;;;;;4986389;28;20092;-60
2023/04/15 03:29:24;;;;;;;2.57;1.20;;;;;;;;;;4998513;28;20054;-59
2023/04/15 03:31:49;;;;;;;2.78;1.38;;;;;;;;;;4979319;28;20293;-59
2023/04/15 03:34:14;;;;;;;1.75;1.23;;;;;;;;;;4986567;28;20037;-60
2023/04/15 03:36:40;;;;;;;2.00;1.17;;;;;;;;;;4986083;28;20050;-60
2023/04/15 03:39:05;;;;;;;2.33;1.40;;;;;;;;;;5000688;28;20038;-60
2023/04/15 03:41:31;;;;;;;1.90;1.10;;;;;;;;;;4976164;28;20031;-60
2023/04/15 03:43:56;;;;;;;2.63;1.50;;;;;;;;;;4986488;28;20030;-61
2023/04/15 03:46:22;;;;;;;2.38;1.58;;;;;;;;;;5000078;28;20667;-59
2023/04/15 03:48:47;;;;;;;2.33;1.37;;;;;;;;;;4998115;28;20494;-58
2023/04/15 03:51:12;;;;;;;2.38;1.15;;;;;;;;;;4982579;28;20843;-60
2023/04/15 03:53:38;;;;;;;2.78;1.30;;;;;;;;;;5000361;28;20549;-58
2023/04/15 03:56:03;;;;;;;2.13;1.23;;;;;;;;;;4981715;28;20039;-60
2023/04/15 03:58:28;;;;;;;2.15;1.30;;;;;;;;;;4985969;28;20309;-60
2023/04/15 04:00:53;;;;;;;2.43;1.27;;;;;;;;;;4998481;28;20420;-60
2023/04/15 04:03:19;;;;;;;2.50;1.40;;;;;;;;;;4976589;28;20587;-60
2023/04/15 04:05:44;;;;;;;2.38;1.45;;;;;;;;;;4993798;28;20301;-59
2023/04/15 04:08:12;;;;;;;1.90;1.10;;;;;;;;;;4985119;28;20465;-59
2023/04/15 04:10:37;;;;;;;2.17;1.10;;;;;;;;;;4989313;28;20038;-61
2023/04/15 04:13:03;;;;;;;2.27;1.30;;;;;;;;;;4985695;28;20038;-61
2023/04/15 04:15:28;;;;;;;3.07;1.13;;;;;;;;;;4984283;28;20277;-61
2023/04/15 04:17:53;;;;;;;2.88;1.30;;;;;;;;;;4984177;28;20149;-61
2023/04/15 04:20:18;;;;;;;2.58;1.25;;;;;;;;;;4984228;28;20483;-60
2023/04/15 04:22:44;;;;;;;1.90;1.20;;;;;;;;;;4985645;28;20396;-60
2023/04/15 04:25:10;;;;;;;2.53;1.45;;;;;;;;;;4985455;28;20034;-60
2023/04/15 04:27:35;;;;;;;2.50;1.30;;;;;;;;;;4984413;28;20082;-62
2023/04/15 04:30:00;;;;;;;2.55;1.33;;;;;;;;;;4983210;28;20117;-62
2023/04/15 04:32:26;;;;;;;2.05;1.20;;;;;;;;;;4987184;28;20027;-60
2023/04/15 04:34:51;;;;;;;1.85;1.10;;;;;;;;;;4983226;28;20050;-61
2023/04/15 04:37:16;;;;;;;2.67;1.23;;;;;;;;;;4985704;28;20042;-63
2023/04/15 04:39:41;;;;;;;2.23;1.33;;;;;;;;;;4984661;28;20297;-61
2023/04/15 04:42:07;;;;;;;2.50;1.37;;;;;;;;;;4987162;28;20786;-61
2023/04/15 04:44:32;;;;;;;1.37;1.07;;;;;;;;;;4984961;28;20380;-60
2023/04/15 04:46:57;;;;;;;2.00;1.40;;;;;;;;;;4985805;28;20281;-62
2023/04/15 04:49:22;;;;;;;2.50;1.40;;;;;;;;;;4986515;28;20117;-61
2023/04/15 04:51:48;;;;;;;2.25;1.27;;;;;;;;;;4990053;28;20075;-61
2023/04/15 04:54:13;;;;;;;2.33;1.27;;;;;;;;;;4985207;28;20612;-60
2023/04/15 04:56:38;;;;;;;2.13;1.33;;;;;;;;;;4986250;28;20050;-62
2023/04/15 04:59:04;;;;;;;2.72;1.50;;;;;;;;;;4987189;28;20285;-61
2023/04/15 05:01:29;;;;;;;2.47;1.48;;;;;;;;;;4973977;28;20054;-64
2023/04/15 05:03:54;;;;;;;2.85;1.70;;;;;;;;;;4986487;28;20427;-61
2023/04/15 05:06:20;;;;;;;2.30;1.30;;;;;;;;;;4986145;28;20122;-60
2023/04/15 05:08:45;;;;;;;2.43;1.60;;;;;;;;;;4985454;28;20346;-61
2023/04/15 05:11:11;;;;;;;3.58;1.20;;;;;;;;;;4986538;28;20290;-62
2023/04/15 05:13:37;;;;;;;2.80;1.25;;;;;;;;;;4984139;28;20132;-61
2023/04/15 05:16:03;;;;;;;2.20;1.10;;;;;;;;;;4986372;28;20027;-62
2023/04/15 05:18:29;;;;;;;2.40;1.60;;;;;;;;;;5000885;28;20303;-61
2023/04/15 05:20:54;;;;;;;2.30;1.20;;;;;;;;;;4981875;28;20069;-61
2023/04/15 05:23:19;;;;;;;1.63;1.07;;;;;;;;;;4999038;28;20038;-61
2023/04/15 05:25:44;;;;;;;3.17;1.30;;;;;;;;;;4986205;28;20686;-62
2023/04/15 05:28:10;;;;;;;2.65;1.30;;;;;;;;;;4983868;28;20285;-61
2023/04/15 05:30:35;;;;;;;2.33;1.48;;;;;;;;;;4985147;28;20081;-61
2023/04/15 05:33:00;;;;;;;2.13;1.13;;;;;;;;;;4986714;28;20046;-62
2023/04/15 05:35:26;;;;;;;3.65;1.30;;;;;;;;;;4984353;28;20290;-62
2023/04/15 05:37:51;;;;;;;2.85;1.20;;;;;;;;;;4986432;28;20475;-61
2023/04/15 05:40:16;;;;;;;3.25;1.75;;;;;;;;;;4980600;28;20046;-61
2023/04/15 05:42:41;;;;;;;3.67;1.33;;;;;;;;;;4984420;28;20491;-60
2023/04/15 05:45:08;;;;;;;3.80;1.60;;;;;;;;;;4985858;28;20282;-65
2023/04/15 05:47:34;;;;;;;4.70;2.30;;;;;;;;;;4990335;28;20467;-61
2023/04/15 05:49:59;;;;;;;2.90;1.50;;;;;;;;;;4982167;28;20042;-61
2023/04/15 05:52:25;;;;;;;3.22;1.42;;;;;;;;;;4989658;28;20053;-59
2023/04/15 05:54:50;;;;;;;2.50;1.60;;;;;;;;;;4988446;28;20123;-59
2023/04/15 05:57:15;;;;;;;4.32;1.85;;;;;;;;;;4998292;28;20096;-61
2023/04/15 05:59:41;;;;;;;3.80;1.77;;;;;;;;;;5001160;28;20042;-62
2023/04/15 06:02:07;;;;;;;2.95;1.70;;;;;;;;;;4988639;28;20058;-62
2023/04/15 06:04:32;;;;;;;2.97;1.80;;;;;;;;;;4989806;28;20069;-60
2023/04/15 06:06:57;;;;;;;2.90;1.75;;;;;;;;;;4988099;28;20379;-63
2023/04/15 06:09:22;;;;;;;3.53;1.50;;;;;;;;;;4986361;28;20069;-61
2023/04/15 06:11:48;;;;;;;3.85;1.75;;;;;;;;;;4988169;28;20037;-63
2023/04/15 06:14:13;;;;;;;3.13;1.70;;;;;;;;;;4989298;28;20035;-62
2023/04/15 06:16:38;;;;;;;2.70;1.30;;;;;;;;;;4988574;28;20041;-64
2023/04/15 06:19:03;;;;;;;1.93;1.30;;;;;;;;;;4989036;28;20525;-61
2023/04/15 06:21:29;;;;;;;3.22;1.55;;;;;;;;;;4985922;28;20424;-60
2023/04/15 06:23:55;;;;;;;4.03;1.50;;;;;;;;;;4985630;28;20052;-59
2023/04/15 06:26:20;;;;;;;2.85;1.70;;;;;;;;;;4984544;28;20832;-62
2023/04/15 06:28:46;;;;;;;2.60;1.40;;;;;;;;;;4986804;28;20034;-59
2023/04/15 06:31:11;;;;;;;2.27;1.73;;;;;;;;;;4986004;28;20525;-59
2023/04/15 06:33:36;;;;;;;3.13;1.60;;;;;;;;;;4989010;28;20257;-60
2023/04/15 06:36:01;;;;;;;2.53;1.73;;;;;;;;;;4989045;28;20103;-63
2023/04/15 06:38:27;;;;;;;2.93;1.80;;;;;;;;;;5003200;28;20140;-64
2023/04/15 06:40:52;;;;;;;8.83;2.33;;;;;;;;;;4983780;28;20797;-61
2023/04/15 06:43:17;;;;;;;3.28;2.00;;;;;;;;;;4999453;28;20414;-62
2023/04/15 06:45:43;;;;;;;3.30;2.08;;;;;;;;;;4988329;28;20054;-60
2023/04/15 06:48:08;;;;;;;3.42;2.38;;;;;;;;;;4988047;28;20110;-62
2023/04/15 06:50:34;;;;;;;3.37;1.87;;;;;;;;;;4988164;28;20026;-60
2023/04/15 06:52:59;;;;;;;3.53;1.92;;;;;;;;;;4987988;28;20269;-60
2023/04/15 06:55:25;;;;;;;3.65;2.13;;;;;;;;;;4988102;28;20022;-61
2023/04/15 06:57:50;;;;;;;3.37;2.00;;;;;;;;;;4986467;28;20117;-63
2023/04/15 07:00:16;;;;;;;4.95;2.53;;;;;;;;;;4980359;28;20817;-62
2023/04/15 07:02:41;;;;;;;4.30;2.50;;;;;;;;;;4981531;28;20046;-61
2023/04/15 07:05:07;;;;;;;3.30;2.07;;;;;;;;;;4988295;28;20034;-64
2023/04/15 07:07:32;;;;;;;5.30;2.42;;;;;;;;;;4990936;28;20026;-65
2023/04/15 07:09:57;;;;;;;3.73;2.30;;;;;;;;;;4987432;28;20082;-62
2023/04/15 07:12:23;;;;;;;4.03;2.10;;;;;;;;;;4986918;28;20285;-66
2023/04/15 07:14:48;;;;;;;3.28;2.08;;;;;;;;;;4987718;28;20277;-61
2023/04/15 07:17:13;;;;;;;4.10;2.80;;;;;;;;;;4999843;28;20045;-61
2023/04/15 07:19:39;;;;;;;5.63;2.53;;;;;;;;;;4987372;28;20041;-61
2023/04/15 07:22:04;;;;;;;3.40;2.50;;;;;;;;;;4988305;28;20514;-61
2023/04/15 07:24:30;;;;;;;3.07;2.57;;;;;;;;;;4987390;28;20022;-61
2023/04/15 07:26:56;;;;;;;4.43;2.72;;;;;;;;;;5002095;28;20136;-62
2023/04/15 07:29:22;;;;;;;6.93;2.85;;;;;;;;;;5001795;28;20109;-63
2023/04/15 07:31:47;;;;;;;3.70;2.95;;;;;;;;;;4986202;28;20041;-64
2023/04/15 07:34:12;;;;;;;4.00;2.73;;;;;;;;;;4983571;28;20081;-63
2023/04/15 07:36:37;;;;;;;5.17;2.80;;;;;;;;;;4985124;28;20278;-62
2023/04/15 07:39:03;;;;;;;4.20;2.90;;;;;;;;;;4988109;28;20266;-61
2023/04/15 07:41:28;;;;;;;4.32;2.70;;;;;;;;;;4987117;28;20504;-58
2023/04/15 07:43:54;;;;;;;3.65;2.60;;;;;;;;;;4985747;28;20050;-59
2023/04/15 07:46:19;;;;;;;4.20;2.95;;;;;;;;;;4977867;28;20038;-61
2023/04/15 07:48:45;;;;;;;3.20;2.38;;;;;;;;;;4983943;28;20023;-57
2023/04/15 07:51:11;;;;;;;3.47;2.60;;;;;;;;;;4980975;28;20023;-62
2023/04/15 07:53:37;;;;;;;3.80;2.50;;;;;;;;;;4998292;28;20029;-62
2023/04/15 07:56:02;;;;;;;3.28;2.40;;;;;;;;;;5002302;28;20026;-59
2023/04/15 07:58:27;;;;;;;3.53;2.28;;;;;;;;;;4987691;28;20121;-61
2023/04/15 08:00:54;;;;;;;3.43;2.50;;;;;;;;;;4980236;28;20074;-61
2023/04/15 08:03:20;;;;;;;3.45;2.25;;;;;;;;;;4982603;28;20632;-59
2023/04/15 08:05:46;;;;;;;2.78;2.13;;;;;;;;;;4985418;28;20030;-63
2023/04/15 08:08:11;;;;;;;3.15;2.00;;;;;;;;;;4984746;28;20046;-60
2023/04/15 08:10:36;;;;;;;3.45;2.30;;;;;;;;;;4996741;28;20034;-61
2023/04/15 08:13:02;;;;;;;4.57;2.20;;;;;;;;;;4980941;28;20555;-61
2023/04/15 08:15:27;;;;;;;2.80;1.97;;;;;;;;;;4987371;28;20265;-59
2023/04/15 08:17:52;;;;;;;3.50;2.00;;;;;;;;;;4986244;28;20100;-59
2023/04/15 08:20:18;;;;;;;4.00;2.17;;;;;;;;;;4985759;28;20141;-61
2023/04/15 08:22:43;;;;;;;3.20;2.13;;;;;;;;;;4987211;28;20905;-67
2023/04/15 08:25:09;;;;;;;2.97;1.90;;;;;;;;;;4990324;28;20068;-62
2023/04/15 08:27:34;;;;;;;3.25;1.80;;;;;;;;;;4985866;28;20038;-61
2023/04/15 08:30:00;;;;;;;6.38;2.08;;;;;;;;;;4986733;28;20045;-60
2023/04/15 08:32:26;;;;;;;2.75;1.75;;;;;;;;;;4986280;28;20111;-61
2023/04/15 08:34:52;;;;;;;2.50;1.80;;;;;;;;;;4983080;28;20031;-60
2023/04/15 08:37:17;;;;;;;3.15;2.00;;;;;;;;;;4985099;28;20507;-59
2023/04/15 08:39:44;;;;;;;2.90;1.88;;;;;;;;;;4987696;28;20041;-61
2023/04/15 08:42:15;;;;;;;2.80;1.70;;;;;;;;;;4985504;28;20073;-59
2023/04/15 08:44:40;;;;;;;2.55;1.98;;;;;;;;;;4986805;28;20030;-60
2023/04/15 08:47:06;;;;;;;3.00;1.87;;;;;;;;;;4984209;28;20068;-64
2023/04/15 08:49:31;;;;;;;3.35;1.65;;;;;;;;;;4980401;28;20277;-65
2023/04/15 08:51:57;;;;;;;4.82;1.50;;;;;;;;;;4987114;28;20039;-66
2023/04/15 08:54:22;;;;;;;2.50;1.13;;;;;;;;;;4987251;28;20035;-66
2023/04/15 08:56:47;;;;;;;2.08;1.30;;;;;;;;;;4984485;28;20031;-66
2023/04/15 08:59:13;;;;;;;3.90;1.40;;;;;;;;;;4993216;28;20541;-65
2023/04/15 09:01:39;;;;;;;2.72;1.10;;;;;;;;;;5010809;23;20323;-68
2023/04/15 09:04:06;;;;;;;3.28;1.33;;;;;;;;;;5021314;28;20044;-67
2023/04/15 09:06:31;;;;;;;4.95;1.35;;;;;;;;;;5023231;28;20361;-67
2023/04/15 09:08:57;;;;;;;1.83;0.80;;;;;;;;;;5019901;28;20123;-66
2023/04/15 09:11:22;;;;;;;3.10;1.20;;;;;;;;;;5009650;28;20029;-67
2023/04/15 09:13:48;;;;;;;4.25;1.15;;;;;;;;;;5023143;28;20021;-67
2023/04/15 09:16:13;;;;;;;2.40;0.70;;;;;;;;;;5023482;28;20116;-66
2023/04/15 09:18:38;;;;;;;3.58;1.55;;;;;;;;;;5007657;28;20145;-80
2023/04/15 09:21:10;;;;;;;2.30;1.37;;;;;;;;;;5049347;23;20053;-65
2023/04/15 09:23:36;;;;;;;2.45;1.50;;;;;;;;;;5039292;28;20284;-72
2023/04/15 09:26:02;;;;;;;3.78;1.40;;;;;;;;;;5023395;28;20088;-67
2023/04/15 09:28:27;;;;;;;4.22;1.67;;;;;;;;;;5038487;28;20033;-72
2023/04/15 09:30:56;;;;;;;3.30;1.40;;;;;;;;;;5014742;28;20044;-65
2023/04/15 09:33:21;;;;;;;3.73;1.70;;;;;;;;;;5038993;28;20112;-68
2023/04/15 09:36:00;;;;;;;4.93;1.85;;;;;;;;;;5036372;28;20124;-66
2023/04/15 09:38:25;;;;;;;4.18;1.75;;;;;;;;;;5026049;28;20048;-67
2023/04/15 09:40:51;;;;;;;2.05;1.35;;;;;;;;;;5043432;28;20493;-68
2023/04/15 09:43:16;;;;;;;4.05;1.42;;;;;;;;;;5030330;28;20044;-71
2023/04/15 09:45:51;;;;;;;3.58;1.45;;;;;;;;;;5043333;28;20037;-67
2023/04/15 09:48:20;;;;;;;4.68;1.70;;;;;;;;;;5030473;28;20041;-65
2023/04/15 09:50:47;;;;;;;3.67;1.50;;;;;;;;;;5031997;28;20030;-72
2023/04/15 09:53:16;;;;;;;4.55;1.50;;;;;;;;;;5023517;28;20569;-69
2023/04/15 09:55:45;;;;;;;4.67;1.50;;;;;;;;;;5024485;28;20064;-70
2023/04/15 09:58:30;;;;;;;4.72;1.40;;;;;;;;;;5034095;28;20040;-71
2023/04/15 10:00:55;;;;;;;3.40;1.20;;;;;;;;;;5027538;28;20124;-70
2023/04/15 10:03:22;;;;;;;2.53;1.17;;;;;;;;;;5032924;28;20109;-72
2023/04/15 10:05:48;;;;;;;5.60;1.40;;;;;;;;;;5029493;28;20494;-66
2023/04/15 10:08:15;;;;;;;2.08;0.98;;;;;;;;;;5023577;28;20421;-70
2023/04/15 10:10:40;;;;;;;1.90;0.82;;;;;;;;;;5029794;28;20133;-67
2023/04/15 10:13:05;;;;;;;1.45;0.68;;;;;;;;;;5044839;28;20565;-72
2023/04/15 10:15:30;;;;;;;2.35;0.70;;;;;;;;;;5039938;28;20041;-67
2023/04/15 10:17:56;;;;;;;3.17;0.50;;;;;;;;;;5023440;28;20045;-70
2023/04/15 10:20:21;;;;;;;2.53;0.57;;;;;;;;;;5024206;28;20292;-71
2023/04/15 10:22:46;;;;;;;3.27;0.80;;;;;;;;;;5056634;28;20378;-70
2023/04/15 10:25:11;;;;;;;1.23;0.50;;;;;;;;;;5043401;28;20259;-66
2023/04/15 10:27:38;;;;;;;2.13;0.60;;;;;;;;;;5049447;28;20811;-72
2023/04/15 10:30:04;;;;;;;2.00;0.40;;;;;;;;;;5044332;28;20040;-66
2023/04/15 10:32:29;;;;;;;1.30;0.50;;;;;;;;;;5043096;28;20224;-69
2023/04/15 10:34:54;;;;;;;1.80;0.30;;;;;;;;;;5044729;28;20057;-62
2023/04/15 10:37:32;;;;;;;1.40;0.30;;;;;;;;;;5049363;28;20080;-65
2023/04/15 10:39:57;;;;;;;1.67;0.30;;;;;;;;;;5044867;28;20075;-72
2023/04/15 10:42:23;;;;;;;1.60;0.43;;;;;;;;;;5046525;28;20041;-69
2023/04/15 10:44:48;;;;;;;2.23;0.60;;;;;;;;;;5047600;28;20194;-73
2023/04/15 10:47:14;;;;;;;2.38;0.50;;;;;;;;;;5045965;28;20287;-72
2023/04/15 10:49:46;;;;;;;1.35;0.35;;;;;;;;;;5044747;28;20072;-64
2023/04/15 10:52:12;;;;;;;2.08;0.50;;;;;;;;;;5045206;28;20040;-67
2023/04/15 10:54:38;;;;;;;2.33;0.50;;;;;;;;;;5045620;28;20021;-69
2023/04/15 10:57:03;;;;;;;2.55;0.80;;;;;;;;;;5043148;28;20099;-66
2023/04/15 10:59:29;;;;;;;2.10;0.40;;;;;;;;;;5046884;28;20734;-71
2023/04/15 11:02:01;;;;;;;1.35;0.40;;;;;;;;;;5044930;28;20273;-65
2023/04/15 11:05:04;;;;;;;2.70;0.50;;;;;;;;;;5049528;28;20020;-63
2023/04/15 11:07:39;;;;;;;1.10;0.38;;;;;;;;;;5050410;28;20040;-65
2023/04/15 11:10:17;;;;;;;1.35;0.50;;;;;;;;;;5031883;28;20060;-68
2023/04/15 11:12:42;;;;;;;1.55;0.50;;;;;;;;;;5057596;28;20509;-71
2023/04/15 11:15:26;;;;;;;1.73;0.45;;;;;;;;;;5049655;28;20082;-66
2023/04/15 11:17:51;;;;;;;1.60;0.30;;;;;;;;;;5030453;28;20049;-73
2023/04/15 11:20:17;;;;;;;1.40;0.30;;;;;;;;;;5026619;28;20067;-73
2023/04/15 11:22:52;;;;;;;1.35;0.40;;;;;;;;;;5043105;28;20289;-70
2023/04/15 11:25:38;;;;;;;1.13;0.32;;;;;;;;;;5046249;28;20059;-67
2023/04/15 11:28:04;;;;;;;2.72;0.50;;;;;;;;;;5046937;28;20037;-71
2023/04/15 11:30:31;;;;;;;2.05;0.40;;;;;;;;;;5044810;28;20548;-65
2023/04/15 11:33:02;;;;;;;1.02;0.43;;;;;;;;;;5046213;28;20090;-71
2023/04/15 11:35:28;;;;;;;1.58;0.35;;;;;;;;;;5025223;28;20504;-70
2023/04/15 11:37:57;;;;;;;1.75;0.30;;;;;;;;;;5036073;28;20594;-68
2023/04/15 11:40:23;;;;;;;1.30;0.40;;;;;;;;;;5046054;28;20427;-72
2023/04/15 11:43:07;;;;;;;2.30;0.43;;;;;;;;;;5044317;28;20061;-66
2023/04/15 11:45:32;;;;;;;2.38;0.63;;;;;;;;;;5044444;28;20466;-71
2023/04/15 11:48:06;;;;;;;2.40;0.50;;;;;;;;;;5044628;28;20017;-74
2023/04/15 11:50:32;;;;;;;2.80;0.80;;;;;;;;;;5045713;28;20310;-63
2023/04/15 11:52:58;;;;;;;1.55;0.60;;;;;;;;;;5024445;28;20037;-70
2023/04/15 11:55:23;;;;;;;2.70;0.50;;;;;;;;;;5033413;28;20029;-74
2023/04/15 11:57:49;;;;;;;2.33;0.57;;;;;;;;;;5031081;28;20051;-66
2023/04/15 12:00:16;;;;;;;1.48;0.60;;;;;;;;;;5044560;28;20037;-63
2023/04/15 12:02:42;;;;;;;2.20;0.50;;;;;;;;;;5043853;28;20036;-73
2023/04/15 12:05:07;;;;;;;1.58;0.50;;;;;;;;;;5036206;28;20454;-72
2023/04/15 12:07:33;;;;;;;2.35;0.70;;;;;;;;;;5029505;28;20026;-70
2023/04/15 12:09:58;;;;;;;1.25;0.57;;;;;;;;;;5024648;28;20038;-69
2023/04/15 12:12:27;;;;;;;2.30;0.63;;;;;;;;;;5033746;28;20057;-71
2023/04/15 12:14:52;;;;;;;2.80;0.68;;;;;;;;;;5012001;28;20045;-65
2023/04/15 12:17:17;;;;;;;1.23;0.53;;;;;;;;;;5026440;28;20059;-72
2023/04/15 12:19:44;;;;;;;1.50;0.50;;;;;;;;;;5042518;28;20295;-70
2023/04/15 12:22:14;;;;;;;3.20;0.80;;;;;;;;;;5043645;28;20282;-65
2023/04/15 12:24:39;;;;;;;2.28;0.60;;;;;;;;;;5044566;28;20045;-68
2023/04/15 12:27:08;;;;;;;1.30;0.47;;;;;;;;;;5045369;28;20037;-62
2023/04/15 12:29:34;;;;;;;0.88;0.45;;;;;;;;;;5043950;28;20052;-67
2023/04/15 12:32:09;;;;;;;3.50;0.68;;;;;;;;;;5045382;28;20118;-69
2023/04/15 12:34:39;;;;;;;1.88;0.45;;;;;;;;;;5044652;28;20144;-67
2023/04/15 12:37:04;;;;;;;1.80;0.55;;;;;;;;;;5042024;28;20049;-67
2023/04/15 12:39:31;;;;;;;2.08;0.77;;;;;;;;;;5034698;28;20506;-68
2023/04/15 12:41:56;;;;;;;2.13;0.38;;;;;;;;;;5031503;28;20144;-69
2023/04/15 12:44:22;;;;;;;2.40;0.60;;;;;;;;;;5045236;28;20675;-67
2023/04/15 12:46:47;;;;;;;2.70;0.50;;;;;;;;;;5044963;28;20103;-72
2023/04/15 12:49:14;;;;;;;1.00;0.50;;;;;;;;;;5044965;28;20758;-72
2023/04/15 12:51:40;;;;;;;1.33;0.40;;;;;;;;;;5042663;28;20033;-64
2023/04/15 12:54:05;;;;;;;1.92;0.50;;;;;;;;;;5045044;28;20090;-65
2023/04/15 12:56:30;;;;;;;3.30;0.40;;;;;;;;;;5044973;28;20468;-70
2023/04/15 12:58:56;;;;;;;1.17;0.40;;;;;;;;;;5043743;28;21203;-72
2023/04/15 13:01:21;;;;;;;1.75;0.50;;;;;;;;;;5032992;28;20810;-72
2023/04/15 13:03:47;;;;;;;1.70;0.55;;;;;;;;;;5045545;28;20037;-62
2023/04/15 13:06:12;;;;;;;2.38;0.60;;;;;;;;;;5042755;28;20123;-71
2023/04/15 13:08:37;;;;;;;1.57;0.40;;;;;;;;;;5043532;28;20044;-74
2023/04/15 13:11:02;;;;;;;1.58;0.50;;;;;;;;;;5043311;28;20998;-67
2023/04/15 13:13:28;;;;;;;2.20;0.43;;;;;;;;;;5043172;28;20037;-67
2023/04/15 13:15:53;;;;;;;0.88;0.30;;;;;;;;;;5042924;28;20846;-68
2023/04/15 13:18:19;;;;;;;1.42;0.40;;;;;;;;;;5023443;28;20053;-65
2023/04/15 13:20:45;;;;;;;1.58;0.40;;;;;;;;;;5040530;28;20041;-65
2023/04/15 13:23:10;;;;;;;1.05;0.30;;;;;;;;;;5044575;28;20098;-65
2023/04/15 13:25:35;;;;;;;2.10;0.38;;;;;;;;;;5046734;28;20116;-67
2023/04/15 13:28:00;;;;;;;3.47;0.30;;;;;;;;;;5050039;28;20037;-63
2023/04/15 13:30:26;;;;;;;1.80;0.43;;;;;;;;;;5048695;28;20298;-72
2023/04/15 13:32:52;;;;;;;1.92;0.40;;;;;;;;;;5044512;28;20049;-69
2023/04/15 13:35:18;;;;;;;1.58;0.40;;;;;;;;;;5044228;28;20364;-69
2023/04/15 13:37:43;;;;;;;1.10;0.30;;;;;;;;;;5034521;28;20564;-69
2023/04/15 13:40:08;;;;;;;1.50;0.50;;;;;;;;;;5039570;28;20513;-71
2023/04/15 13:42:34;;;;;;;1.02;0.40;;;;;;;;;;5043728;28;20037;-72
2023/04/15 13:44:59;;;;;;;2.80;0.40;;;;;;;;;;5044919;28;20106;-67
2023/04/15 13:47:25;;;;;;;1.50;0.85;;;;;;;;;;5043380;28;20206;-65
2023/04/15 13:49:51;;;;;;;2.00;0.50;;;;;;;;;;5044883;28;20040;-72
2023/04/15 13:52:16;;;;;;;1.33;0.40;;;;;;;;;;5042170;28;20041;-73
2023/04/15 13:54:42;;;;;;;1.90;0.40;;;;;;;;;;5044191;28;20441;-73
2023/04/15 13:57:07;;;;;;;1.27;0.50;;;;;;;;;;5042513;28;20120;-67
2023/04/15 13:59:33;;;;;;;1.25;0.35;;;;;;;;;;5044718;28;20341;-66
2023/04/15 14:01:58;;;;;;;1.92;0.40;;;;;;;;;;5042711;28;20116;-68
2023/04/15 14:04:24;;;;;;;2.40;0.47;;;;;;;;;;5043888;28;20037;-69
2023/04/15 14:06:49;;;;;;;1.43;0.30;;;;;;;;;;5044073;28;20359;-67
2023/04/15 14:09:15;;;;;;;0.85;0.30;;;;;;;;;;5042768;28;20801;-67
2023/04/15 14:11:40;;;;;;;1.10;0.30;;;;;;;;;;5047908;28;20053;-69
2023/04/15 14:14:05;;;;;;;1.13;0.40;;;;;;;;;;5045970;28;20048;-71
2023/04/15 14:16:34;;;;;;;2.50;0.80;;;;;;;;;;5045759;28;21281;-64
2023/04/15 14:18:59;;;;;;;1.38;0.22;;;;;;;;;;5046291;28;20301;-67
2023/04/15 14:21:26;;;;;;;1.30;0.40;;;;;;;;;;5035406;28;20049;-67
2023/04/15 14:23:52;;;;;;;2.67;0.45;;;;;;;;;;5044887;28;20028;-70
2023/04/15 14:26:17;;;;;;;2.08;0.43;;;;;;;;;;5026978;28;20120;-66
2023/04/15 14:28:43;;;;;;;2.97;0.57;;;;;;;;;;5042907;28;20044;-63
2023/04/15 14:31:09;;;;;;;1.98;0.43;;;;;;;;;;5035330;28;20026;-67
2023/04/15 14:33:34;;;;;;;2.87;0.67;;;;;;;;;;5044017;28;20055;-62
2023/04/15 14:35:59;;;;;;;4.07;0.60;;;;;;;;;;5031097;28;20292;-63